createdAt,value
2023-03-20T00:01:44.039Z,101137.34
2023-03-20T00:04:07.894Z,101137.34
2023-03-20T00:06:33.072Z,101136.97
2023-03-20T00:08:58.498Z,101137.94
2023-03-20T00:11:33.116Z,101133.31
2023-03-20T00:13:59.374Z,101130.44
2023-03-20T00:16:24.740Z,101136.66
2023-03-20T00:18:48.996Z,101138.84
2023-03-20T00:21:19.390Z,101127.81
2023-03-20T00:23:44.537Z,101130.09
2023-03-20T00:26:10.904Z,101135.09
2023-03-20T00:28:41.017Z,101134.34
2023-03-20T00:31:07.230Z,101135.03
2023-03-20T00:33:31.406Z,101129.03
2023-03-20T00:35:55.160Z,101131.63
2023-03-20T00:38:18.822Z,101126.78
2023-03-20T00:40:44.171Z,101122.09
2023-03-20T00:43:08.996Z,101127.94
2023-03-20T00:45:35.763Z,101134.25
2023-03-20T00:47:59.904Z,101126.44
2023-03-20T00:50:29.828Z,101135.06
2023-03-20T00:52:55.457Z,101128.28
2023-03-20T00:55:20.269Z,101123.50
2023-03-20T00:57:49.867Z,101124.16
2023-03-20T01:00:25.044Z,101129.75
2023-03-20T01:02:49.210Z,101119.69
2023-03-20T01:05:13.146Z,101123.53
2023-03-20T01:07:36.870Z,101123.34
2023-03-20T01:10:00.580Z,101114.13
2023-03-20T01:12:25.024Z,101115.38
2023-03-20T01:14:53.615Z,101118.81
2023-03-20T01:17:21.178Z,101120.75
2023-03-20T01:19:44.823Z,101134.28
2023-03-20T01:22:08.655Z,101127.41
2023-03-20T01:24:32.449Z,101128.47
2023-03-20T01:26:56.269Z,101126.34
2023-03-20T01:29:23.732Z,101135.53
2023-03-20T01:31:49.579Z,101136.41
2023-03-20T01:34:16.448Z,101131.56
2023-03-20T01:36:41.685Z,101136.50
2023-03-20T01:39:06.483Z,101136.63
2023-03-20T01:41:31.698Z,101135.66
2023-03-20T01:43:55.406Z,101146.25
2023-03-20T01:46:25.320Z,101143.38
2023-03-20T01:49:31.006Z,101141.16
2023-03-20T01:51:59.192Z,101147.34
2023-03-20T01:54:30.970Z,101139.19
2023-03-20T01:57:17.143Z,101144.47
2023-03-20T01:59:45.581Z,101150.47
2023-03-20T02:02:11.164Z,101141.03
2023-03-20T02:04:43.063Z,101144.03
2023-03-20T02:07:12.223Z,101138.44
2023-03-20T02:09:39.331Z,101143.47
2023-03-20T02:12:08.347Z,101151.63
2023-03-20T02:14:33.989Z,101143.41
2023-03-20T02:17:10.599Z,101138.03
2023-03-20T02:19:56.419Z,101143.38
2023-03-20T02:23:08.491Z,101137.50
2023-03-20T02:26:13.535Z,101134.91
2023-03-20T02:33:21.917Z,101136.25
2023-03-20T02:36:49.390Z,101139.28
2023-03-20T02:39:36.502Z,101138.13
2023-03-20T02:42:09.291Z,101144.09
2023-03-20T02:44:42.575Z,101144.94
2023-03-20T02:47:12.812Z,101145.19
2023-03-20T02:49:53.634Z,101143.78
2023-03-20T02:52:24.199Z,101146.78
2023-03-20T02:55:00.077Z,101141.44
2023-03-20T02:57:35.769Z,101138.88
2023-03-20T03:00:11.751Z,101139.63
2023-03-20T03:02:41.226Z,101135.31
2023-03-20T03:05:12.092Z,101147.44
2023-03-20T03:07:38.493Z,101139.31
2023-03-20T03:10:09.090Z,101142.19
2023-03-20T03:12:39.281Z,101147.16
2023-03-20T03:15:07.687Z,101146.81
2023-03-20T03:17:36.919Z,101151.19
2023-03-20T03:20:07.051Z,101151.19
2023-03-20T03:22:31.715Z,101152.06
2023-03-20T03:24:56.540Z,101158.72
2023-03-20T03:27:24.872Z,101159.38
2023-03-20T03:29:55.131Z,101150.78
2023-03-20T03:32:29.075Z,101154.00
2023-03-20T03:34:53.233Z,101152.63
2023-03-20T03:37:28.702Z,101146.19
2023-03-20T03:39:57.467Z,101146.94
2023-03-20T03:42:29.103Z,101144.69
2023-03-20T03:45:00.048Z,101146.59
2023-03-20T03:47:32.744Z,101145.31
2023-03-20T03:50:06.223Z,101152.72
2023-03-20T03:52:32.247Z,101143.59
2023-03-20T03:55:02.040Z,101144.88
2023-03-20T03:57:36.130Z,101146.72
2023-03-20T04:00:04.845Z,101152.41
2023-03-20T04:02:36.998Z,101164.00
2023-03-20T04:05:03.332Z,101155.00
2023-03-20T04:07:29.763Z,101157.44
2023-03-20T04:09:53.451Z,101158.50
2023-03-20T04:12:38.272Z,101164.09
2023-03-20T04:15:07.655Z,101160.88
2023-03-20T04:17:31.397Z,101160.88
2023-03-20T04:19:55.392Z,101164.84
2023-03-20T04:22:19.102Z,101166.44
2023-03-20T04:24:42.763Z,101167.41
2023-03-20T04:27:06.536Z,101178.66
2023-03-20T04:29:32.252Z,101169.03
2023-03-20T04:32:13.300Z,101178.44
2023-03-20T04:35:07.389Z,101173.72
2023-03-20T04:37:42.192Z,101175.00
2023-03-20T04:40:08.153Z,101172.56
2023-03-20T04:42:32.162Z,101177.09
2023-03-20T04:45:01.203Z,101176.06
2023-03-20T04:47:26.583Z,101181.88
2023-03-20T04:49:50.575Z,101176.69
2023-03-20T04:52:15.140Z,101180.78
2023-03-20T04:54:41.027Z,101180.97
2023-03-20T04:57:04.929Z,101178.28
2023-03-20T04:59:29.307Z,101180.22
2023-03-20T05:01:54.502Z,101184.09
2023-03-20T05:04:19.779Z,101183.22
2023-03-20T05:06:44.020Z,101177.97
2023-03-20T05:09:08.047Z,101176.66
2023-03-20T05:11:33.826Z,101186.97
2023-03-20T05:14:06.838Z,101185.22
2023-03-20T05:16:54.979Z,101186.50
2023-03-20T05:19:43.219Z,101180.75
2023-03-20T05:22:16.263Z,101183.13
2023-03-20T05:24:46.029Z,101182.25
2023-03-20T05:27:32.697Z,101188.41
2023-03-20T05:30:09.349Z,101188.25
2023-03-20T05:32:55.000Z,101182.88
2023-03-20T05:35:33.905Z,101185.97
2023-03-20T05:38:14.135Z,101178.38
2023-03-20T05:40:50.339Z,101176.25
2023-03-20T05:43:24.465Z,101177.44
2023-03-20T05:45:50.970Z,101183.75
2023-03-20T05:48:27.968Z,101191.47
2023-03-20T05:51:10.121Z,101191.06
2023-03-20T05:53:45.794Z,101192.53
2023-03-20T05:56:21.131Z,101198.16
2023-03-20T05:59:03.063Z,101198.78
2023-03-20T06:01:36.438Z,101199.22
2023-03-20T06:04:19.409Z,101206.72
2023-03-20T06:07:10.072Z,101211.28
2023-03-20T06:09:36.030Z,101210.47
2023-03-20T06:12:04.309Z,101223.41
2023-03-20T06:14:28.395Z,101225.63
2023-03-20T06:16:57.359Z,101229.75
2023-03-20T06:19:23.874Z,101239.69
2023-03-20T06:21:47.956Z,101233.44
2023-03-20T06:24:14.474Z,101235.06
2023-03-20T06:26:38.182Z,101241.56
2023-03-20T06:29:06.502Z,101239.63
2023-03-20T06:31:31.237Z,101241.31
2023-03-20T06:33:56.816Z,101248.50
2023-03-20T06:36:22.202Z,101256.41
2023-03-20T06:38:50.682Z,101254.06
2023-03-20T06:41:27.795Z,101259.56
2023-03-20T06:43:55.962Z,101266.22
2023-03-20T06:46:24.688Z,101261.06
2023-03-20T06:48:48.574Z,101259.34
2023-03-20T06:51:12.650Z,101267.94
2023-03-20T06:53:47.045Z,101266.03
2023-03-20T06:56:17.012Z,101270.53
2023-03-20T06:58:42.357Z,101275.91
2023-03-20T07:01:11.846Z,101280.09
2023-03-20T07:03:35.829Z,101272.28
2023-03-20T07:06:00.565Z,101283.63
2023-03-20T07:08:24.736Z,101292.63
2023-03-20T07:10:49.866Z,101290.91
2023-03-20T07:13:14.503Z,101287.91
2023-03-20T07:15:53.877Z,101285.84
2023-03-20T07:18:29.058Z,101288.88
2023-03-20T07:20:55.536Z,101293.44
2023-03-20T07:23:19.698Z,101298.03
2023-03-20T07:25:43.516Z,101299.50
2023-03-20T07:28:14.011Z,101296.72
2023-03-20T07:30:41.958Z,101303.38
2023-03-20T07:33:06.459Z,101299.84
2023-03-20T07:35:31.637Z,101300.03
2023-03-20T07:37:57.088Z,101301.19
2023-03-20T07:40:22.343Z,101304.88
2023-03-20T07:43:13.602Z,101313.34
2023-03-20T07:45:57.378Z,101307.44
2023-03-20T07:48:21.383Z,101308.25
2023-03-20T07:50:45.410Z,101302.53
2023-03-20T07:53:09.365Z,101304.38
2023-03-20T07:55:32.992Z,101310.59
2023-03-20T07:57:56.712Z,101295.41
2023-03-20T08:00:22.747Z,101295.25
2023-03-20T08:02:46.798Z,101304.03
2023-03-20T08:05:11.371Z,101302.69
2023-03-20T08:07:35.534Z,101301.34
2023-03-20T08:09:59.365Z,101319.28
2023-03-20T08:12:23.317Z,101312.34
2023-03-20T08:14:46.996Z,101327.84
2023-03-20T08:17:15.554Z,101323.84
2023-03-20T08:19:40.296Z,101324.69
2023-03-20T08:22:04.057Z,101324.94
2023-03-20T08:24:28.061Z,101330.22
2023-03-20T08:26:52.509Z,101324.78
2023-03-20T08:29:19.332Z,101320.28
2023-03-20T08:31:43.064Z,101319.16
2023-03-20T08:34:08.183Z,101321.00
2023-03-20T08:36:31.904Z,101310.50
2023-03-20T08:38:56.182Z,101314.06
2023-03-20T08:41:20.453Z,101306.38
2023-03-20T08:43:44.210Z,101302.38
2023-03-20T08:46:08.415Z,101307.31
2023-03-20T08:48:32.147Z,101304.25
2023-03-20T08:50:57.384Z,101304.97
2023-03-20T08:53:22.225Z,101308.09
2023-03-20T08:55:50.395Z,101309.34
2023-03-20T08:58:14.031Z,101301.19
2023-03-20T09:00:37.826Z,101308.09
2023-03-20T09:03:01.579Z,101302.09
2023-03-20T09:05:25.421Z,101305.19
2023-03-20T09:07:51.512Z,101319.34
2023-03-20T09:10:15.532Z,101319.16
2023-03-20T09:12:39.679Z,101317.50
2023-03-20T09:15:03.789Z,101307.38
2023-03-20T09:17:27.484Z,101311.94
2023-03-20T09:19:51.153Z,101312.09
2023-03-20T09:22:18.087Z,101303.41
2023-03-20T09:24:43.136Z,101312.09
2023-03-20T09:27:07.020Z,101314.19
2023-03-20T09:29:30.937Z,101308.94
2023-03-20T09:31:55.282Z,101308.03
2023-03-20T09:34:18.955Z,101317.00
2023-03-20T09:36:42.608Z,101307.69
2023-03-20T09:39:06.604Z,101314.88
2023-03-20T09:41:45.841Z,101321.38
2023-03-20T09:44:34.236Z,101312.34
2023-03-20T09:47:19.712Z,101320.25
2023-03-20T09:49:54.729Z,101315.63
2023-03-20T09:52:28.726Z,101327.81
2023-03-20T09:54:56.406Z,101320.53
2023-03-20T09:57:25.983Z,101324.81
2023-03-20T09:59:52.585Z,101321.59
2023-03-20T10:02:24.393Z,101331.13
2023-03-20T10:04:50.235Z,101333.22
2023-03-20T10:07:17.228Z,101327.16
2023-03-20T10:09:41.232Z,101321.56
2023-03-20T10:12:28.805Z,101323.94
2023-03-20T10:15:02.175Z,101328.84
2023-03-20T10:17:44.652Z,101323.50
2023-03-20T10:20:15.829Z,101336.97
2023-03-20T10:22:44.536Z,101323.03
2023-03-20T10:25:22.328Z,101324.75
2023-03-20T10:27:54.194Z,101325.75
2023-03-20T10:30:31.732Z,101323.44
2023-03-20T10:33:12.332Z,101321.06
2023-03-20T10:35:41.147Z,101322.56
2023-03-20T10:38:19.240Z,101320.84
2023-03-20T10:40:44.081Z,101314.69
2023-03-20T10:43:17.539Z,101311.19
2023-03-20T10:45:45.406Z,101317.09
2023-03-20T10:48:18.549Z,101311.38
2023-03-20T10:50:47.019Z,101315.41
2023-03-20T10:53:22.687Z,101306.50
2023-03-20T10:55:47.805Z,101315.03
2023-03-20T10:58:20.456Z,101315.72
2023-03-20T11:00:44.676Z,101309.03
2023-03-20T11:03:18.593Z,101299.25
2023-03-20T11:05:42.258Z,101299.59
2023-03-20T11:08:09.532Z,101296.56
2023-03-20T11:10:35.870Z,101302.97
2023-03-20T11:13:00.908Z,101307.84
2023-03-20T11:15:30.252Z,101303.09
2023-03-20T11:17:59.324Z,101305.47
2023-03-20T11:20:23.560Z,101310.31
2023-03-20T11:22:49.697Z,101308.50
2023-03-20T11:25:26.698Z,101309.41
2023-03-20T11:27:50.433Z,101293.38
2023-03-20T11:30:18.568Z,101304.28
2023-03-20T11:32:49.073Z,101304.38
2023-03-20T11:35:25.399Z,101307.75
2023-03-20T11:37:52.165Z,101301.53
2023-03-20T11:40:23.290Z,101303.09
2023-03-20T11:42:54.648Z,101299.66
2023-03-20T11:45:19.292Z,101302.09
2023-03-20T11:47:45.738Z,101294.25
2023-03-20T11:50:29.218Z,101285.88
2023-03-20T11:52:53.050Z,101282.72
2023-03-20T11:55:28.812Z,101282.72
2023-03-20T11:57:52.656Z,101284.00
2023-03-20T12:00:21.810Z,101273.88
2023-03-20T12:02:47.316Z,101275.03
2023-03-20T12:05:29.366Z,101278.41
2023-03-20T12:07:58.137Z,101279.63
2023-03-20T12:10:22.836Z,101264.50
2023-03-20T12:12:52.108Z,101265.41
2023-03-20T12:15:24.367Z,101271.81
2023-03-20T12:17:56.249Z,101264.63
2023-03-20T12:20:34.024Z,101261.81
2023-03-20T12:23:07.505Z,101261.47
2023-03-20T12:25:38.652Z,101265.41
2023-03-20T12:28:08.020Z,101261.56
2023-03-20T12:30:45.908Z,101267.81
2023-03-20T12:33:18.117Z,101261.66
2023-03-20T12:35:48.468Z,101259.91
2023-03-20T12:38:26.267Z,101255.03
2023-03-20T12:40:56.562Z,101250.59
2023-03-20T12:43:27.445Z,101245.81
2023-03-20T12:45:59.081Z,101260.69
2023-03-20T12:48:52.064Z,101260.63
2023-03-20T12:51:27.257Z,101251.34
2023-03-20T12:54:12.618Z,101251.47
2023-03-20T12:56:58.406Z,101241.69
2023-03-20T12:59:28.830Z,101235.94
2023-03-20T13:01:58.281Z,101240.00
2023-03-20T13:04:43.176Z,101238.75
2023-03-20T13:07:18.305Z,101241.34
2023-03-20T13:10:14.217Z,101238.50
2023-03-20T13:12:48.449Z,101234.53
2023-03-20T13:15:29.429Z,101230.16
2023-03-20T13:17:59.228Z,101238.31
2023-03-20T13:20:32.313Z,101231.88
2023-03-20T13:23:13.772Z,101229.63
2023-03-20T13:26:15.272Z,101232.56
2023-03-20T13:28:51.754Z,101218.09
2023-03-20T13:31:28.989Z,101212.00
2023-03-20T13:34:02.318Z,101219.03
2023-03-20T13:36:49.704Z,101217.06
2023-03-20T13:39:21.414Z,101220.09
2023-03-20T13:41:47.648Z,101225.03
2023-03-20T13:44:15.284Z,101221.00
2023-03-20T13:46:45.915Z,101224.81
2023-03-20T13:49:19.877Z,101227.22
2023-03-20T13:51:54.863Z,101222.53
2023-03-20T13:54:39.188Z,101213.09
2023-03-20T13:57:13.930Z,101218.75
2023-03-20T14:00:02.268Z,101218.38
2023-03-20T14:02:57.550Z,101224.56
2023-03-20T14:05:24.022Z,101218.31
2023-03-20T14:07:50.963Z,101223.69
2023-03-20T14:10:38.832Z,101220.94
2023-03-20T14:13:06.831Z,101222.91
2023-03-20T14:15:35.165Z,101219.72
2023-03-20T14:17:59.337Z,101217.19
2023-03-20T14:20:31.702Z,101216.38
2023-03-20T14:22:59.152Z,101216.47
2023-03-20T14:25:24.341Z,101214.09
2023-03-20T14:28:00.366Z,101212.44
2023-03-20T14:30:44.619Z,101200.47
2023-03-20T14:33:24.388Z,101210.41
2023-03-20T14:35:51.950Z,101207.59
2023-03-20T14:38:28.743Z,101198.81
2023-03-20T14:41:02.301Z,101204.97
2023-03-20T14:43:46.880Z,101207.66
2023-03-20T14:46:23.816Z,101203.69
2023-03-20T14:48:52.011Z,101186.22
2023-03-20T14:51:27.788Z,101191.88
2023-03-20T14:54:27.850Z,101200.31
2023-03-20T14:56:53.017Z,101195.22
2023-03-20T14:59:18.626Z,101191.19
2023-03-20T15:01:48.818Z,101193.50
2023-03-20T15:04:30.392Z,101183.41
2023-03-20T15:06:59.660Z,101184.47
2023-03-20T15:09:25.344Z,101185.50
2023-03-20T15:11:51.312Z,101183.91
2023-03-20T15:14:21.936Z,101188.84
2023-03-20T15:16:47.447Z,101180.19
2023-03-20T15:19:19.217Z,101174.88
2023-03-20T15:21:48.150Z,101176.00
2023-03-20T15:24:21.383Z,101172.97
2023-03-20T15:26:45.214Z,101172.97
2023-03-20T15:29:18.804Z,101167.59
2023-03-20T15:31:42.744Z,101165.31
2023-03-20T15:34:14.307Z,101173.53
2023-03-20T15:36:41.618Z,101169.75
2023-03-20T15:39:15.191Z,101175.53
2023-03-20T15:41:40.042Z,101172.84
2023-03-20T15:44:19.030Z,101173.09
2023-03-20T15:46:43.385Z,101174.88
2023-03-20T15:49:07.025Z,101181.28
2023-03-20T15:51:30.735Z,101180.84
2023-03-20T15:53:54.378Z,101187.78
2023-03-20T15:56:20.325Z,101184.75
2023-03-20T15:58:45.970Z,101180.78
2023-03-20T16:01:17.330Z,101180.53
2023-03-20T16:03:41.745Z,101180.56
2023-03-20T16:06:10.779Z,101190.44
2023-03-20T16:08:36.016Z,101186.31
2023-03-20T16:11:03.059Z,101189.22
2023-03-20T16:13:27.903Z,101182.34
2023-03-20T16:15:52.173Z,101193.13
2023-03-20T16:18:19.157Z,101187.44
2023-03-20T16:20:49.752Z,101187.25
2023-03-20T16:23:30.569Z,101192.59
2023-03-20T16:25:59.274Z,101194.91
2023-03-20T16:28:23.000Z,101188.50
2023-03-20T16:30:46.865Z,101190.81
2023-03-20T16:33:17.254Z,101198.25
2023-03-20T16:35:45.631Z,101193.56
2023-03-20T16:38:25.062Z,101188.84
2023-03-20T16:40:49.715Z,101192.91
2023-03-20T16:43:18.325Z,101184.31
2023-03-20T16:45:45.925Z,101193.88
2023-03-20T16:48:34.149Z,101189.69
2023-03-20T16:51:02.341Z,101201.31
2023-03-20T16:53:31.381Z,101196.06
2023-03-20T16:55:58.030Z,101197.00
2023-03-20T16:58:25.012Z,101191.13
2023-03-20T17:00:53.987Z,101190.97
2023-03-20T17:03:20.408Z,101184.63
2023-03-20T17:05:55.590Z,101195.94
2023-03-20T17:08:29.425Z,101188.50
2023-03-20T17:10:59.423Z,101197.13
2023-03-20T17:13:23.122Z,101198.41
2023-03-20T17:15:46.870Z,101203.69
2023-03-20T17:18:15.455Z,101203.28
2023-03-20T17:20:39.341Z,101213.56
2023-03-20T17:23:05.128Z,101210.22
2023-03-20T17:25:28.916Z,101208.66
2023-03-20T17:27:52.667Z,101204.50
2023-03-20T17:30:20.815Z,101211.50
2023-03-20T17:32:44.600Z,101218.34
2023-03-20T17:35:09.398Z,101212.84
2023-03-20T17:37:33.018Z,101211.63
2023-03-20T17:39:58.298Z,101222.91
2023-03-20T17:42:24.581Z,101226.34
2023-03-20T17:44:49.162Z,101219.38
2023-03-20T17:47:17.520Z,101220.03
2023-03-20T17:49:41.225Z,101220.88
2023-03-20T17:52:05.081Z,101220.25
2023-03-20T17:54:28.784Z,101224.78
2023-03-20T17:56:53.824Z,101220.78
2023-03-20T17:59:17.592Z,101221.38
2023-03-20T18:01:41.331Z,101219.31
2023-03-20T18:04:05.155Z,101223.47
2023-03-20T18:06:32.062Z,101214.38
2023-03-20T18:08:56.075Z,101214.91
2023-03-20T18:11:19.748Z,101213.41
2023-03-20T18:13:44.909Z,101206.19
2023-03-20T18:16:17.175Z,101204.47
2023-03-20T18:18:40.926Z,101204.72
2023-03-20T18:21:04.576Z,101212.09
2023-03-20T18:23:28.356Z,101212.19
2023-03-20T18:25:52.112Z,101207.41
2023-03-20T18:28:22.564Z,101209.75
2023-03-20T18:30:48.941Z,101213.53
2023-03-20T18:33:12.744Z,101218.91
2023-03-20T18:35:37.538Z,101213.66
2023-03-20T18:38:01.947Z,101211.81
2023-03-20T18:40:29.274Z,101215.38
2023-03-20T18:42:53.666Z,101213.66
2023-03-20T18:45:17.349Z,101220.25
2023-03-20T18:47:42.631Z,101218.53
2023-03-20T18:50:07.185Z,101213.41
2023-03-20T18:52:31.621Z,101218.78
2023-03-20T18:54:55.265Z,101224.16
2023-03-20T18:57:19.183Z,101219.91
2023-03-20T18:59:42.828Z,101226.34
2023-03-20T19:02:06.967Z,101224.66
2023-03-20T19:04:32.797Z,101220.97
2023-03-20T19:06:56.393Z,101237.22
2023-03-20T19:09:20.059Z,101225.09
2023-03-20T19:11:43.783Z,101222.19
2023-03-20T19:14:07.492Z,101224.13
2023-03-20T19:16:35.203Z,101228.06
2023-03-20T19:19:01.653Z,101230.44
2023-03-20T19:21:27.080Z,101237.28
2023-03-20T19:23:50.730Z,101241.72
2023-03-20T19:26:19.410Z,101233.13
2023-03-20T19:28:44.092Z,101237.53
2023-03-20T19:31:08.245Z,101236.94
2023-03-20T19:33:32.397Z,101230.44
2023-03-20T19:36:03.400Z,101243.84
2023-03-20T19:38:29.166Z,101237.13
2023-03-20T19:40:54.065Z,101233.22
2023-03-20T19:43:18.035Z,101225.69
2023-03-20T19:45:44.470Z,101234.03
2023-03-20T19:48:16.693Z,101243.47
2023-03-20T19:50:41.741Z,101233.81
2023-03-20T19:53:10.071Z,101233.56
2023-03-20T19:55:35.842Z,101231.00
2023-03-20T19:58:00.773Z,101236.78
2023-03-20T20:01:12.209Z,101245.56
2023-03-20T20:03:18.734Z,101240.44
2023-03-20T20:05:42.421Z,101234.03
2023-03-20T20:08:25.930Z,101236.94
2023-03-20T20:10:55.392Z,101241.00
2023-03-20T20:13:21.218Z,101236.25
2023-03-20T20:15:45.522Z,101230.16
2023-03-20T20:18:09.191Z,101226.81
2023-03-20T20:20:34.603Z,101233.69
2023-03-20T20:22:58.911Z,101236.88
2023-03-20T20:25:22.776Z,101232.19
2023-03-20T20:27:48.534Z,101232.09
2023-03-20T20:30:15.691Z,101227.06
2023-03-20T20:32:40.717Z,101228.25
2023-03-20T20:35:39.809Z,101234.09
2023-03-20T20:40:33.444Z,101225.56
2023-03-20T20:43:01.805Z,101226.91
2023-03-20T20:45:31.275Z,101226.91
2023-03-20T20:47:57.026Z,101229.81
2023-03-20T20:50:23.140Z,101233.25
2023-03-20T20:52:46.982Z,101236.69
2023-03-20T20:55:28.107Z,101228.16
2023-03-20T20:57:53.042Z,101226.75
2023-03-20T21:00:21.211Z,101215.31
2023-03-20T21:02:44.981Z,101212.56
2023-03-20T21:05:09.991Z,101206.91
2023-03-20T21:07:35.026Z,101207.13
2023-03-20T21:09:58.609Z,101217.03
2023-03-20T21:12:34.677Z,101222.41
2023-03-20T21:15:02.221Z,101212.31
2023-03-20T21:17:28.106Z,101203.03
2023-03-20T21:19:52.080Z,101202.34
2023-03-20T21:22:15.986Z,101210.63
2023-03-20T21:24:40.014Z,101217.59
2023-03-20T21:27:05.755Z,101225.78
2023-03-20T21:29:29.649Z,101217.09
2023-03-20T21:31:53.517Z,101220.53
2023-03-20T21:34:18.690Z,101228.94
2023-03-20T21:36:42.722Z,101233.84
2023-03-20T21:39:08.566Z,101229.72
2023-03-20T21:41:33.430Z,101235.09
2023-03-20T21:43:57.079Z,101233.63
2023-03-20T21:55:10.246Z,101244.38
2023-03-20T21:58:03.520Z,101239.63
2023-03-20T22:02:45.618Z,101242.31
2023-03-20T22:05:48.383Z,101243.31
2023-03-20T22:11:27.641Z,101237.66
2023-03-20T22:19:49.888Z,101240.34
2023-03-20T22:22:23.235Z,101242.84
2023-03-20T22:30:41.432Z,101224.41
2023-03-20T22:33:22.461Z,101234.94
2023-03-20T22:36:02.851Z,101239.28
2023-03-20T22:38:49.555Z,101234.69
2023-03-20T22:46:43.878Z,101233.72
2023-03-20T22:48:59.001Z,101226.94
2023-03-20T22:51:32.569Z,101229.53
2023-03-20T22:53:59.142Z,101238.28
2023-03-20T22:56:24.498Z,101246.97
2023-03-20T22:58:48.211Z,101238.94
2023-03-20T23:01:12.412Z,101240.78
2023-03-20T23:03:41.808Z,101238.72
2023-03-20T23:06:10.527Z,101237.03
2023-03-20T23:08:42.471Z,101243.78
2023-03-20T23:11:12.351Z,101241.06
2023-03-20T23:13:37.533Z,101234.84
2023-03-20T23:16:01.264Z,101241.41
2023-03-20T23:18:24.942Z,101240.34
2023-03-20T23:20:48.643Z,101244.31
2023-03-20T23:23:12.290Z,101238.50
2023-03-20T23:25:39.823Z,101235.09
2023-03-20T23:28:03.899Z,101237.78
2023-03-20T23:30:41.737Z,101243.78
2023-03-20T23:33:07.865Z,101243.59
2023-03-20T23:35:31.554Z,101233.13
2023-03-20T23:37:55.381Z,101232.06
2023-03-20T23:40:19.767Z,101232.81
2023-03-20T23:42:43.516Z,101241.13
2023-03-20T23:45:19.665Z,101235.09
2023-03-20T23:47:45.935Z,101239.00
2023-03-20T23:50:14.562Z,101245.19
2023-03-20T23:52:53.318Z,101244.22
2023-03-20T23:55:21.719Z,101247.31
2023-03-20T23:57:45.362Z,101242.41
